createdAt,value
2018-08-27T00:01:31.075Z,50.85
2018-08-27T00:04:00.663Z,50.68
2018-08-27T00:06:29.308Z,50.31
2018-08-27T00:08:58.597Z,50.16
2018-08-27T00:11:27.335Z,50.22
2018-08-27T00:13:57.438Z,50.50
2018-08-27T00:16:26.237Z,50.51
2018-08-27T00:18:54.868Z,51.24
2018-08-27T00:21:27.969Z,51.00
2018-08-27T00:23:56.828Z,51.14
2018-08-27T00:26:26.820Z,50.95
2018-08-27T00:28:56.897Z,50.96
2018-08-27T00:31:25.781Z,50.72
2018-08-27T00:33:59.395Z,51.01
2018-08-27T00:36:30.013Z,50.74
2018-08-27T00:39:00.706Z,51.83
2018-08-27T00:41:30.097Z,51.90
2018-08-27T00:43:58.923Z,51.81
2018-08-27T00:46:27.502Z,51.83
2018-08-27T00:48:57.243Z,51.91
2018-08-27T00:51:26.881Z,51.92
2018-08-27T00:53:55.494Z,52.18
2018-08-27T00:56:24.076Z,52.56
2018-08-27T00:58:53.181Z,51.89
2018-08-27T01:01:21.814Z,51.81
2018-08-27T01:03:52.195Z,52.08
2018-08-27T01:06:21.740Z,52.01
2018-08-27T01:08:50.889Z,52.13
2018-08-27T01:11:24.748Z,51.83
2018-08-27T01:13:54.365Z,51.51
2018-08-27T01:16:23.819Z,50.83
2018-08-27T01:18:53.527Z,50.63
2018-08-27T01:21:23.181Z,50.88
2018-08-27T01:23:51.996Z,50.75
2018-08-27T01:26:23.954Z,51.03
2018-08-27T01:28:53.517Z,51.26
2018-08-27T01:31:23.291Z,51.22
2018-08-27T01:33:53.203Z,51.43
2018-08-27T01:36:26.217Z,51.48
2018-08-27T01:38:55.959Z,51.04
2018-08-27T01:41:26.113Z,51.60
2018-08-27T01:43:55.085Z,51.22
2018-08-27T01:46:24.130Z,51.87
2018-08-27T01:48:54.117Z,52.11
2018-08-27T01:51:24.803Z,52.49
2018-08-27T01:53:53.963Z,52.92
2018-08-27T01:56:24.053Z,53.13
2018-08-27T01:58:53.941Z,53.49
2018-08-27T02:01:23.388Z,53.62
2018-08-27T02:03:52.977Z,53.81
2018-08-27T02:06:23.558Z,53.67
2018-08-27T02:08:54.731Z,53.45
2018-08-27T02:11:23.692Z,53.61
2018-08-27T02:13:53.117Z,53.44
2018-08-27T02:16:22.436Z,53.58
2018-08-27T02:18:52.084Z,53.50
2018-08-27T02:21:21.430Z,53.42
2018-08-27T02:23:51.196Z,53.12
2018-08-27T02:26:21.125Z,53.06
2018-08-27T02:28:52.653Z,52.78
2018-08-27T02:31:22.397Z,53.06
2018-08-27T02:33:52.183Z,52.74
2018-08-27T02:36:22.489Z,52.60
2018-08-27T02:38:51.943Z,52.78
2018-08-27T02:41:20.783Z,52.94
2018-08-27T02:43:50.511Z,53.02
2018-08-27T02:46:19.925Z,53.62
2018-08-27T02:48:49.283Z,53.86
2018-08-27T02:51:20.199Z,53.88
2018-08-27T02:53:49.345Z,54.25
2018-08-27T02:56:17.970Z,54.07
2018-08-27T02:58:46.960Z,54.00
2018-08-27T03:01:15.784Z,54.36
2018-08-27T03:03:44.397Z,54.92
2018-08-27T03:06:13.222Z,54.90
2018-08-27T03:08:42.709Z,54.66
2018-08-27T03:11:12.112Z,55.11
2018-08-27T03:13:40.907Z,54.74
2018-08-27T03:16:09.577Z,54.65
2018-08-27T03:18:41.787Z,55.04
2018-08-27T03:21:11.303Z,55.00
2018-08-27T03:23:41.948Z,55.33
2018-08-27T03:26:11.692Z,55.33
2018-08-27T03:28:42.971Z,55.56
2018-08-27T03:31:11.673Z,55.87
2018-08-27T03:33:44.142Z,55.73
2018-08-27T03:36:13.204Z,56.01
2018-08-27T03:38:43.854Z,55.57
2018-08-27T03:41:14.691Z,54.97
2018-08-27T03:43:43.957Z,55.26
2018-08-27T03:46:14.760Z,55.26
2018-08-27T03:48:44.970Z,55.70
2018-08-27T03:51:15.841Z,55.79
2018-08-27T03:53:44.922Z,55.80
2018-08-27T03:56:14.188Z,55.89
2018-08-27T03:58:44.292Z,55.93
2018-08-27T04:01:13.919Z,56.40
2018-08-27T04:03:45.046Z,56.25
2018-08-27T04:06:13.772Z,56.56
2018-08-27T04:08:43.074Z,56.70
2018-08-27T04:11:11.751Z,56.32
2018-08-27T04:13:40.346Z,56.86
2018-08-27T04:16:10.471Z,57.14
2018-08-27T04:18:39.356Z,57.24
2018-08-27T04:21:09.541Z,57.29
2018-08-27T04:23:38.417Z,57.42
2018-08-27T04:26:07.983Z,57.65
2018-08-27T04:28:36.895Z,57.74
2018-08-27T04:31:07.289Z,58.04
2018-08-27T04:33:36.594Z,58.40
2018-08-27T04:36:06.080Z,57.95
2018-08-27T04:38:34.768Z,58.27
2018-08-27T04:41:04.507Z,58.30
2018-08-27T04:43:34.716Z,58.45
2018-08-27T04:46:04.253Z,58.24
2018-08-27T04:48:34.775Z,58.23
2018-08-27T04:51:07.976Z,58.30
2018-08-27T04:53:38.729Z,58.33
2018-08-27T04:56:09.319Z,57.88
2018-08-27T04:58:41.788Z,58.07
2018-08-27T05:01:11.402Z,57.72
2018-08-27T05:03:41.383Z,57.35
2018-08-27T05:06:10.308Z,57.32
2018-08-27T05:08:39.249Z,57.25
2018-08-27T05:11:12.172Z,57.38
2018-08-27T05:13:40.865Z,57.40
2018-08-27T05:16:09.480Z,57.01
2018-08-27T05:18:38.132Z,56.74
2018-08-27T05:21:07.574Z,57.25
2018-08-27T05:23:36.235Z,57.23
2018-08-27T05:26:05.556Z,57.02
2018-08-27T05:28:34.177Z,57.02
2018-08-27T05:31:08.293Z,56.85
2018-08-27T05:33:36.915Z,56.79
2018-08-27T05:36:05.933Z,56.52
2018-08-27T05:38:36.270Z,56.61
2018-08-27T05:41:06.791Z,56.33
2018-08-27T05:43:35.552Z,55.38
2018-08-27T05:46:06.733Z,53.82
2018-08-27T05:48:35.892Z,52.62
2018-08-27T05:51:05.115Z,52.48
2018-08-27T05:53:34.507Z,53.42
2018-08-27T05:56:08.116Z,53.97
2018-08-27T05:58:36.770Z,54.13
2018-08-27T06:01:06.639Z,53.53
2018-08-27T06:03:35.517Z,53.24
2018-08-27T06:06:05.065Z,52.61
2018-08-27T06:08:34.376Z,51.96
2018-08-27T06:11:03.208Z,51.69
2018-08-27T06:13:31.940Z,51.24
2018-08-27T06:16:01.752Z,51.26
2018-08-27T06:18:31.549Z,51.35
2018-08-27T06:21:01.729Z,51.72
2018-08-27T06:23:31.547Z,51.80
2018-08-27T06:26:00.381Z,51.55
2018-08-27T06:28:30.677Z,52.18
2018-08-27T06:31:01.871Z,51.57
2018-08-27T06:33:30.733Z,51.28
2018-08-27T06:36:00.247Z,51.35
2018-08-27T06:38:30.718Z,50.77
2018-08-27T06:41:00.393Z,49.58
2018-08-27T06:43:29.914Z,49.51
2018-08-27T06:46:00.412Z,50.09
2018-08-27T06:48:29.116Z,49.75
2018-08-27T06:51:00.382Z,47.51
2018-08-27T06:53:30.968Z,46.67
2018-08-27T06:55:59.758Z,46.61
2018-08-27T06:58:30.246Z,45.13
2018-08-27T07:01:00.374Z,44.57
2018-08-27T07:03:30.985Z,44.80
2018-08-27T07:06:01.709Z,43.71
2018-08-27T07:08:30.980Z,42.15
2018-08-27T07:11:00.541Z,42.20
2018-08-27T07:13:30.754Z,40.34
2018-08-27T07:16:00.415Z,40.98
2018-08-27T07:18:31.644Z,41.48
2018-08-27T07:21:02.579Z,40.68
2018-08-27T07:23:31.880Z,40.41
2018-08-27T07:26:00.685Z,41.48
2018-08-27T07:28:30.259Z,40.83
2018-08-27T07:31:01.561Z,40.58
2018-08-27T07:33:35.290Z,38.82
2018-08-27T07:36:04.628Z,38.78
2018-08-27T07:38:35.145Z,39.44
2018-08-27T07:41:04.500Z,40.47
2018-08-27T07:43:34.745Z,39.81
2018-08-27T07:46:04.924Z,40.26
2018-08-27T07:48:34.193Z,40.22
2018-08-27T07:51:04.392Z,39.58
2018-08-27T07:53:35.343Z,39.34
2018-08-27T07:56:05.606Z,38.90
2018-08-27T07:58:35.393Z,39.01
2018-08-27T08:01:05.128Z,37.59
2018-08-27T08:03:33.986Z,38.32
2018-08-27T08:06:05.263Z,38.45
2018-08-27T08:08:35.025Z,38.32
2018-08-27T08:11:06.218Z,38.90
2018-08-27T08:13:35.514Z,40.28
2018-08-27T08:16:05.229Z,39.46
2018-08-27T08:18:35.727Z,40.41
2018-08-27T08:21:04.903Z,40.13
2018-08-27T08:23:34.747Z,40.14
2018-08-27T08:26:07.073Z,39.77
2018-08-27T08:28:43.475Z,38.42
2018-08-27T08:31:13.125Z,39.48
2018-08-27T08:33:42.414Z,39.77
2018-08-27T08:36:11.195Z,39.43
2018-08-27T08:38:40.853Z,39.59
2018-08-27T08:41:10.030Z,38.31
2018-08-27T08:43:40.529Z,38.64
2018-08-27T08:46:09.750Z,38.46
2018-08-27T08:48:39.135Z,37.85
2018-08-27T08:51:08.277Z,37.56
2018-08-27T08:53:37.746Z,37.57
2018-08-27T08:56:09.278Z,37.54
2018-08-27T08:58:39.416Z,37.27
2018-08-27T09:01:09.987Z,36.12
2018-08-27T09:03:38.911Z,36.39
2018-08-27T09:06:09.708Z,36.05
2018-08-27T09:08:41.253Z,35.75
2018-08-27T09:11:12.376Z,35.66
2018-08-27T09:13:41.147Z,36.59
2018-08-27T09:16:11.525Z,36.88
2018-08-27T09:18:41.169Z,37.86
2018-08-27T09:21:11.472Z,38.12
2018-08-27T09:23:42.235Z,38.17
2018-08-27T09:26:12.854Z,36.62
2018-08-27T09:28:42.833Z,36.84
2018-08-27T09:31:11.633Z,37.58
2018-08-27T09:33:41.136Z,36.92
2018-08-27T09:36:10.313Z,38.11
2018-08-27T09:38:42.063Z,38.05
2018-08-27T09:41:12.489Z,38.31
2018-08-27T09:43:43.348Z,39.39
2018-08-27T09:46:12.178Z,38.86
2018-08-27T09:48:43.922Z,38.70
2018-08-27T09:51:19.149Z,38.35
2018-08-27T09:53:49.144Z,38.10
2018-08-27T09:56:19.735Z,39.51
2018-08-27T09:58:50.943Z,39.65
2018-08-27T10:01:25.732Z,41.03
2018-08-27T10:03:57.512Z,40.32
2018-08-27T10:06:27.575Z,39.21
2018-08-27T10:08:57.035Z,38.63
2018-08-27T10:11:28.395Z,38.79
2018-08-27T10:13:59.289Z,38.85
2018-08-27T10:16:30.133Z,38.93
2018-08-27T10:18:59.702Z,39.32
2018-08-27T10:21:29.481Z,39.33
2018-08-27T10:24:01.519Z,39.20
2018-08-27T10:26:30.360Z,39.18
2018-08-27T10:28:59.731Z,39.44
2018-08-27T10:31:31.219Z,39.79
2018-08-27T10:34:00.249Z,38.71
2018-08-27T10:36:30.347Z,37.56
2018-08-27T10:39:05.690Z,37.69
2018-08-27T10:41:35.486Z,37.88
2018-08-27T10:44:04.828Z,37.08
2018-08-27T10:46:33.564Z,37.15
2018-08-27T10:49:02.575Z,37.38
2018-08-27T10:51:32.122Z,36.67
2018-08-27T10:54:01.626Z,37.06
2018-08-27T10:56:30.989Z,37.48
2018-08-27T10:59:04.051Z,37.07
2018-08-27T11:01:33.534Z,38.04
2018-08-27T11:04:03.656Z,37.24
2018-08-27T11:06:32.546Z,37.78
2018-08-27T11:09:02.909Z,36.86
2018-08-27T11:11:33.220Z,36.98
2018-08-27T11:14:03.111Z,36.86
2018-08-27T11:16:33.186Z,36.12
2018-08-27T11:19:02.585Z,36.35
2018-08-27T11:21:31.849Z,36.59
2018-08-27T11:24:05.105Z,35.93
2018-08-27T11:26:38.060Z,36.46
2018-08-27T11:29:12.251Z,37.07
2018-08-27T11:31:42.534Z,35.09
2018-08-27T11:34:12.390Z,35.54
2018-08-27T11:36:42.743Z,35.64
2018-08-27T11:39:13.472Z,34.76
2018-08-27T11:41:42.801Z,34.78
2018-08-27T11:44:11.563Z,35.47
2018-08-27T11:46:40.410Z,36.10
2018-08-27T11:49:09.291Z,35.34
2018-08-27T11:51:38.787Z,34.53
2018-08-27T11:54:08.688Z,34.30
2018-08-27T11:56:37.788Z,33.61
2018-08-27T11:59:07.356Z,32.92
2018-08-27T12:01:36.961Z,33.63
2018-08-27T12:04:06.665Z,32.79
2018-08-27T12:06:36.016Z,33.00
2018-08-27T12:09:07.689Z,32.02
2018-08-27T12:11:37.097Z,31.80
2018-08-27T12:14:06.647Z,32.32
2018-08-27T12:16:37.712Z,31.77
2018-08-27T12:19:07.785Z,31.26
2018-08-27T12:21:37.941Z,32.22
2018-08-27T12:24:08.852Z,31.72
2018-08-27T12:26:39.098Z,32.00
2018-08-27T12:29:09.859Z,32.74
2018-08-27T12:31:39.353Z,33.87
2018-08-27T12:34:09.066Z,34.18
2018-08-27T12:36:39.436Z,35.20
2018-08-27T12:39:10.055Z,33.77
2018-08-27T12:41:38.867Z,34.54
2018-08-27T12:44:09.001Z,35.30
2018-08-27T12:46:37.822Z,34.09
2018-08-27T12:49:07.558Z,33.99
2018-08-27T12:51:37.801Z,34.18
2018-08-27T12:54:08.340Z,35.25
2018-08-27T12:56:38.120Z,36.38
2018-08-27T12:59:09.710Z,36.06
2018-08-27T13:01:38.898Z,36.08
2018-08-27T13:04:12.383Z,37.89
2018-08-27T13:06:44.038Z,36.86
2018-08-27T13:09:14.024Z,37.03
2018-08-27T13:11:44.625Z,37.00
2018-08-27T13:14:15.260Z,36.32
2018-08-27T13:16:44.866Z,35.28
2018-08-27T13:19:14.195Z,36.08
2018-08-27T13:21:43.823Z,35.60
2018-08-27T13:24:14.309Z,33.90
2018-08-27T13:26:43.040Z,33.78
2018-08-27T13:29:12.400Z,33.67
2018-08-27T13:31:41.363Z,34.58
2018-08-27T13:34:11.080Z,35.52
2018-08-27T13:36:41.507Z,35.77
2018-08-27T13:39:11.640Z,35.05
2018-08-27T13:41:41.150Z,36.73
2018-08-27T13:44:10.360Z,36.14
2018-08-27T13:46:40.211Z,36.69
2018-08-27T13:49:10.150Z,37.20
2018-08-27T13:51:46.370Z,37.93
2018-08-27T13:54:15.953Z,38.34
2018-08-27T13:56:46.102Z,39.82
2018-08-27T13:59:16.561Z,39.28
2018-08-27T14:01:45.870Z,38.45
2018-08-27T14:04:16.464Z,39.83
2018-08-27T14:06:45.805Z,38.56
2018-08-27T14:09:15.980Z,39.17
2018-08-27T14:11:45.690Z,40.67
2018-08-27T14:14:17.128Z,41.28
2018-08-27T14:16:46.947Z,41.23
2018-08-27T14:19:17.313Z,40.83
2018-08-27T14:21:47.031Z,40.67
2018-08-27T14:24:17.558Z,38.86
2018-08-27T14:26:46.926Z,37.13
2018-08-27T14:29:16.307Z,37.04
2018-08-27T14:31:51.749Z,37.56
2018-08-27T14:34:22.262Z,37.79
2018-08-27T14:36:51.590Z,35.65
2018-08-27T14:39:21.519Z,36.21
2018-08-27T14:41:51.246Z,35.90
2018-08-27T14:44:20.342Z,35.53
2018-08-27T14:46:49.945Z,34.94
2018-08-27T14:49:18.791Z,35.07
2018-08-27T14:51:47.821Z,35.22
2018-08-27T14:54:17.452Z,35.52
2018-08-27T14:56:47.707Z,36.49
2018-08-27T14:59:16.656Z,35.82
2018-08-27T15:01:48.032Z,35.09
2018-08-27T15:04:18.008Z,36.68
2018-08-27T15:06:47.241Z,36.90
2018-08-27T15:09:17.023Z,37.75
2018-08-27T15:11:46.301Z,37.59
2018-08-27T15:14:17.836Z,36.70
2018-08-27T15:16:48.566Z,37.85
2018-08-27T15:19:17.190Z,36.98
2018-08-27T15:21:46.150Z,36.39
2018-08-27T15:24:16.121Z,36.41
2018-08-27T15:26:52.614Z,37.12
2018-08-27T15:29:22.690Z,37.94
2018-08-27T15:31:52.396Z,36.87
2018-08-27T15:34:23.251Z,36.95
2018-08-27T15:36:52.549Z,38.48
2018-08-27T15:39:21.969Z,37.83
2018-08-27T15:41:50.964Z,38.18
2018-08-27T15:44:19.911Z,38.26
2018-08-27T15:46:50.448Z,38.31
2018-08-27T15:49:21.066Z,37.89
2018-08-27T15:51:56.322Z,37.99
2018-08-27T15:54:27.747Z,37.83
2018-08-27T15:56:58.445Z,37.73
2018-08-27T15:59:29.760Z,38.26
2018-08-27T16:01:59.449Z,39.13
2018-08-27T16:04:29.529Z,39.69
2018-08-27T16:06:58.399Z,39.61
2018-08-27T16:09:27.437Z,39.63
2018-08-27T16:11:57.254Z,38.96
2018-08-27T16:14:27.152Z,39.70
2018-08-27T16:16:57.161Z,40.38
2018-08-27T16:19:26.277Z,39.52
2018-08-27T16:21:56.100Z,39.45
2018-08-27T16:24:25.938Z,39.49
2018-08-27T16:26:55.639Z,39.88
2018-08-27T16:29:25.575Z,39.78
2018-08-27T16:31:54.809Z,40.50
2018-08-27T16:34:25.329Z,40.54
2018-08-27T16:36:54.205Z,40.85
2018-08-27T16:39:23.836Z,40.36
2018-08-27T16:41:52.493Z,40.63
2018-08-27T16:44:22.852Z,40.74
2018-08-27T16:46:51.974Z,40.70
2018-08-27T16:49:20.823Z,41.71
2018-08-27T16:51:49.447Z,41.40
2018-08-27T16:54:19.158Z,41.95
2018-08-27T16:56:48.222Z,43.22
2018-08-27T16:59:17.017Z,42.68
2018-08-27T17:01:47.426Z,43.25
2018-08-27T17:04:16.323Z,43.57
2018-08-27T17:06:45.212Z,43.77
2018-08-27T17:09:14.023Z,43.31
2018-08-27T17:11:43.659Z,43.73
2018-08-27T17:14:13.136Z,44.00
2018-08-27T17:16:41.825Z,44.27
2018-08-27T17:19:11.220Z,44.06
2018-08-27T17:21:39.968Z,44.23
2018-08-27T17:24:09.658Z,43.83
2018-08-27T17:26:38.783Z,44.38
2018-08-27T17:29:07.689Z,44.09
2018-08-27T17:31:38.210Z,44.59
2018-08-27T17:34:07.276Z,44.90
2018-08-27T17:36:38.559Z,44.38
2018-08-27T17:39:11.890Z,45.20
2018-08-27T17:41:41.640Z,45.08
2018-08-27T17:44:11.870Z,45.53
2018-08-27T17:46:41.991Z,45.11
2018-08-27T17:49:11.342Z,45.48
2018-08-27T17:51:40.037Z,45.47
2018-08-27T17:54:08.739Z,45.58
2018-08-27T17:56:37.924Z,45.71
2018-08-27T17:59:07.949Z,46.85
2018-08-27T18:01:37.331Z,47.09
2018-08-27T18:04:06.362Z,47.19
2018-08-27T18:06:36.207Z,47.37
2018-08-27T18:09:05.549Z,47.58
2018-08-27T18:11:35.499Z,47.17
2018-08-27T18:14:04.823Z,47.09
2018-08-27T18:16:34.337Z,47.27
2018-08-27T18:19:03.345Z,47.40
2018-08-27T18:21:32.702Z,46.84
2018-08-27T18:24:02.107Z,46.62
2018-08-27T18:26:33.334Z,47.21
2018-08-27T18:29:02.997Z,46.95
2018-08-27T18:31:32.450Z,47.49
2018-08-27T18:34:01.973Z,47.49
2018-08-27T18:36:31.669Z,48.02
2018-08-27T18:39:01.905Z,48.79
2018-08-27T18:41:31.536Z,48.43
2018-08-27T18:44:05.870Z,48.34
2018-08-27T18:46:35.471Z,48.03
2018-08-27T18:49:05.433Z,47.94
2018-08-27T18:51:35.963Z,47.52
2018-08-27T18:54:04.923Z,47.49
2018-08-27T18:56:35.279Z,48.06
2018-08-27T18:59:05.014Z,47.41
2018-08-27T19:01:40.731Z,47.27
2018-08-27T19:04:10.342Z,47.62
2018-08-27T19:06:39.590Z,47.93
2018-08-27T19:09:10.468Z,47.89
2018-08-27T19:11:39.553Z,47.63
2018-08-27T19:14:10.189Z,47.96
2018-08-27T19:16:40.660Z,48.37
2018-08-27T19:19:10.473Z,47.88
2018-08-27T19:21:39.744Z,48.74
2018-08-27T19:24:09.598Z,48.88
2018-08-27T19:26:38.716Z,49.00
2018-08-27T19:29:07.932Z,48.85
2018-08-27T19:31:39.129Z,49.48
2018-08-27T19:34:08.453Z,49.65
2018-08-27T19:36:37.484Z,49.71
2018-08-27T19:39:09.508Z,49.53
2018-08-27T19:41:38.800Z,49.80
2018-08-27T19:44:08.017Z,49.36
2018-08-27T19:46:38.184Z,49.81
2018-08-27T19:49:07.872Z,50.25
2018-08-27T19:51:36.830Z,50.92
2018-08-27T19:54:06.033Z,50.55
2018-08-27T19:56:35.535Z,50.03
2018-08-27T19:59:11.127Z,50.59
2018-08-27T20:01:41.435Z,50.28
2018-08-27T20:04:11.470Z,50.57
2018-08-27T20:06:40.403Z,50.65
2018-08-27T20:09:09.222Z,50.68
2018-08-27T20:11:39.070Z,51.22
2018-08-27T20:14:08.241Z,51.12
2018-08-27T20:16:38.015Z,51.31
2018-08-27T20:19:07.044Z,51.10
2018-08-27T20:21:36.430Z,51.27
2018-08-27T20:24:07.427Z,52.51
2018-08-27T20:26:37.054Z,52.06
2018-08-27T20:29:06.768Z,52.08
2018-08-27T20:31:35.562Z,52.90
2018-08-27T20:34:04.225Z,52.52
2018-08-27T20:36:33.060Z,52.88
